Forum - i mitici sud

tutti gli utenti del gruppo possono partecipare le discussione con riferimento a sesso o non conforme a chatta.it verranno imossi

Amministratore
FCFranco 21/01/2017 ore 09:35 Quota

(nessuno) Nowcasting Sabato 21 Gennaio 2017

Buongiorno a tutti


Notizie Meteo dell'Italia da il Meteo .It


http://ilMeteo.It


la Situazione Italiana vista dal Sat








il Radar Europeo









Brindisi

METAR LIBR 210715Z 06005KT 9999 FEW020 09/07 Q1028 NOSIG RMK FEW VIS MIN 9999 WIND THR13 /////KT WIND THR31 07001KT BLU=

Metar di Brindisi del 21 alle 7,15z

Vento da 60° E NE 5 nodi (9,26 km) Visibilitą 10000 m
Copertura 1-2 ottavi da 2000 piedi (609,6 m)
Temp 9°C Dew 7°C Ur 87% hPa 1028
Nuvolositą a 1-2 ottavi
Visibilitą Minima 10000 m

Brindisi

TAF LIBR 210500Z 2106/2206 09010KT 9999 SCT020 BECMG 2117/2119 04007KT=

le TAF delle 5z Previsioni dalle 6z alle 6z del 22

Vento da 90° E 10 nodi (18,52 km) Visibilitą 10000 m
Copertura 3-4 ottavi da 2000 piedi (609,6 m)
le Condizioni Diverranno fra le 17z e le 19z
Vento da 40° N NE 7 nodi (12,962 km)


Gioia del Colle

METAR LIBV 210655Z 35003KT 0200 R32L/0200 R14R/0250 FG OVC001 04/04 Q1027 RMK OVC VIS MIN 0200 WIND THR32 01004KT WIND THR14 36004KT RED=

Metar di Gioia del Colle del 21 alle 6,55z

Vento da 350° N NW 5 nodi (5,556 km) Visibilitą 200 m , Nebbia
Copertura 8-ottavi da 100 piedi (30,48 m)
Temp 4°C Dew 4°C Ur 100% hPa 1027
Nuvolositą a 8 ottavi
Visibilitą Minima 200 m

Gioia del Colle

TAF LIBV 210500Z 2106/2115 36008KT 0500 FG OVC002 BECMG 2107/2108 3000 BR SCT008 BKN010 BECMG 2108/2110 8000 FEW010 SCT015=

le TAF di Gioia del Colle delle 5z Previsioni dalle 6z alle 15z

Vento da 360° N 8 nodi (14,816 km) Visibilitą 500 m , Nebbia
Copertura 8 ottavi da 200 piedi (60,96 m)
le Condizioni Diverranno fra le 7z e le 8z
Visibilitą 3000 m , Foschia
Copertura 3-4 ottavi da 800 piedi (2438,4 m)
Copertura 5-7 ottavi da 1000 piedi (304,8 m)
le Condizioni Diverranno fra le 8z e le 10z
Visibilitą 8000 m
Copertura 1-2 ottavi da 1000 piedi (304,8 m)
Copertura 3-4 ottavi da 1500 piedi (457,2 m)
2318364
Buongiorno a tutti Notizie Meteo dell'Italia da il Meteo .It http://ilMeteo.It la Situazione Italiana vista dal Sat « immagine »...
Discussione
21/01/2017 09:35:46
none
  • mi piace
    iLikeIt
    PublicVote
    1
cuore.amico
Moderatore
cuore.amico 22/01/2017 ore 11:55 Quota

Vuoi partecipare anche tu a questa discussione?

Rispondi per lasciare il tuo messaggio in questa discussione